createdAt,value
2018-02-05T00:01:32.574Z,7.83
2018-02-05T00:04:00.774Z,7.87
2018-02-05T00:06:28.951Z,7.80
2018-02-05T00:08:57.144Z,7.50
2018-02-05T00:11:25.357Z,7.30
2018-02-05T00:13:53.546Z,8.17
2018-02-05T00:16:21.782Z,8.07
2018-02-05T00:18:50.716Z,8.50
2018-02-05T00:21:18.894Z,7.83
2018-02-05T00:23:47.081Z,8.47
2018-02-05T00:26:15.262Z,7.80
2018-02-05T00:28:43.461Z,8.93
2018-02-05T00:31:12.412Z,8.40
2018-02-05T00:33:40.573Z,8.07
2018-02-05T00:36:08.774Z,8.80
2018-02-05T00:38:36.939Z,9.07
2018-02-05T00:41:05.176Z,8.87
2018-02-05T00:43:34.117Z,8.40
2018-02-05T00:46:03.343Z,8.83
2018-02-05T00:48:31.587Z,8.47
2018-02-05T00:51:00.689Z,8.13
2018-02-05T00:53:28.874Z,9.20
2018-02-05T00:55:57.078Z,9.43
2018-02-05T00:58:25.285Z,9.00
2018-02-05T01:00:53.531Z,9.27
2018-02-05T01:03:22.489Z,9.70
2018-02-05T01:05:50.674Z,9.73
2018-02-05T01:08:19.640Z,9.33
2018-02-05T01:10:48.933Z,9.60
2018-02-05T01:13:17.181Z,9.60
2018-02-05T01:15:46.175Z,9.20
2018-02-05T01:18:14.366Z,9.53
2018-02-05T01:20:42.561Z,10.40
2018-02-05T01:23:10.768Z,9.23
2018-02-05T01:25:42.130Z,9.80
2018-02-05T01:28:10.316Z,9.43
2018-02-05T01:30:39.304Z,9.70
2018-02-05T01:33:07.544Z,9.83
2018-02-05T01:35:35.780Z,9.93
2018-02-05T01:38:04.003Z,9.80
2018-02-05T01:40:32.202Z,9.93
2018-02-05T01:43:00.376Z,9.80
2018-02-05T01:45:29.342Z,10.10
2018-02-05T01:47:57.526Z,10.33
2018-02-05T01:50:25.738Z,10.10
2018-02-05T01:52:53.942Z,10.03
2018-02-05T01:55:22.128Z,11.37
2018-02-05T01:57:50.306Z,11.40
2018-02-05T02:00:18.732Z,12.40
2018-02-05T02:02:46.960Z,12.43
2018-02-05T02:05:15.247Z,11.50
2018-02-05T02:07:43.457Z,12.00
2018-02-05T02:10:11.655Z,12.00
2018-02-05T02:12:40.610Z,13.63
2018-02-05T02:15:08.817Z,12.30
2018-02-05T02:17:36.981Z,12.30
2018-02-05T02:20:05.204Z,13.57
2018-02-05T02:22:33.487Z,13.40
2018-02-05T02:25:01.655Z,13.60
2018-02-05T02:27:30.639Z,12.50
2018-02-05T02:29:58.827Z,13.47
2018-02-05T02:32:27.112Z,13.23
2018-02-05T02:34:55.303Z,13.40
2018-02-05T02:37:23.527Z,13.90
2018-02-05T02:39:52.479Z,13.77
2018-02-05T02:42:20.681Z,13.40
2018-02-05T02:44:50.376Z,14.63
2018-02-05T02:47:18.578Z,14.27
2018-02-05T02:49:46.778Z,15.43
2018-02-05T02:52:14.965Z,14.43
2018-02-05T02:54:43.144Z,14.93
2018-02-05T02:57:11.337Z,14.87
2018-02-05T02:59:39.533Z,15.23
2018-02-05T03:02:07.749Z,14.00
2018-02-05T03:04:36.966Z,14.07
2018-02-05T03:07:05.185Z,13.37
2018-02-05T03:09:33.363Z,13.70
2018-02-05T03:12:01.525Z,13.17
2018-02-05T03:14:29.736Z,14.10
2018-02-05T03:16:58.702Z,13.50
2018-02-05T03:19:26.920Z,14.10
2018-02-05T03:21:55.094Z,14.70
2018-02-05T03:24:24.038Z,13.77
2018-02-05T03:26:52.225Z,13.17
2018-02-05T03:29:20.438Z,13.80
2018-02-05T03:31:48.648Z,13.97
2018-02-05T03:34:16.848Z,13.87
2018-02-05T03:36:45.013Z,13.80
2018-02-05T03:39:13.199Z,14.40
2018-02-05T03:41:41.370Z,14.60
2018-02-05T03:44:09.590Z,15.03
2018-02-05T03:46:38.566Z,13.77
2018-02-05T03:49:07.494Z,14.27
2018-02-05T03:51:35.669Z,14.37
2018-02-05T03:54:04.002Z,15.23
2018-02-05T03:56:32.239Z,15.30
2018-02-05T03:59:00.411Z,15.13
2018-02-05T04:01:28.583Z,15.43
2018-02-05T04:03:56.768Z,14.40
2018-02-05T04:06:24.957Z,14.30
2018-02-05T04:08:53.147Z,15.83
2018-02-05T04:11:21.317Z,15.07
2018-02-05T04:13:49.566Z,16.00
2018-02-05T04:16:17.731Z,15.87
2018-02-05T04:18:45.909Z,15.77
2018-02-05T04:21:14.079Z,16.33
2018-02-05T04:23:42.289Z,16.37
2018-02-05T04:26:10.528Z,16.73
2018-02-05T04:28:38.735Z,18.70
2018-02-05T04:31:06.927Z,17.43
2018-02-05T04:33:35.095Z,17.93
2018-02-05T04:36:03.271Z,17.30
2018-02-05T04:38:31.475Z,19.70
2018-02-05T04:41:00.432Z,19.67
2018-02-05T04:43:28.640Z,19.33
2018-02-05T04:45:57.625Z,20.33
2018-02-05T04:48:26.599Z,19.77
2018-02-05T04:50:54.866Z,18.20
2018-02-05T04:53:23.073Z,18.30
2018-02-05T04:55:52.035Z,17.47
2018-02-05T04:58:20.234Z,18.97
2018-02-05T05:00:48.444Z,17.80
2018-02-05T05:03:17.620Z,17.40
2018-02-05T05:05:46.582Z,16.77
2018-02-05T05:08:14.791Z,17.27
2018-02-05T05:10:43.763Z,16.90
2018-02-05T05:13:13.468Z,17.63
2018-02-05T05:15:41.675Z,17.20
2018-02-05T05:18:10.651Z,16.63
2018-02-05T05:20:38.848Z,17.20
2018-02-05T05:23:07.872Z,17.53
2018-02-05T05:25:36.072Z,16.83
2018-02-05T05:28:04.307Z,16.53
2018-02-05T05:30:32.519Z,16.43
2018-02-05T05:33:00.721Z,16.13
2018-02-05T05:35:30.418Z,16.83
2018-02-05T05:37:58.612Z,16.70
2018-02-05T05:40:27.580Z,17.67
2018-02-05T05:42:55.760Z,17.17
2018-02-05T05:45:23.948Z,19.37
2018-02-05T05:47:52.138Z,19.77
2018-02-05T05:50:20.499Z,18.63
2018-02-05T05:52:48.689Z,18.20
2018-02-05T05:55:17.728Z,18.73
2018-02-05T05:57:45.906Z,16.37
2018-02-05T06:00:14.089Z,18.07
2018-02-05T06:02:42.310Z,17.50
2018-02-05T06:05:10.513Z,17.87
2018-02-05T06:07:38.687Z,18.17
2018-02-05T06:10:06.873Z,18.20
2018-02-05T06:12:35.051Z,17.40
2018-02-05T06:15:03.295Z,16.70
2018-02-05T06:17:32.257Z,15.93
2018-02-05T06:20:00.443Z,14.77
2018-02-05T06:22:28.638Z,15.80
2018-02-05T06:24:57.573Z,15.63
2018-02-05T06:27:25.794Z,16.23
2018-02-05T06:29:54.070Z,15.33
2018-02-05T06:32:22.246Z,14.30
2018-02-05T06:34:51.190Z,14.77
2018-02-05T06:37:19.360Z,14.93
2018-02-05T06:39:47.603Z,14.53
2018-02-05T06:42:15.844Z,13.07
2018-02-05T06:44:44.062Z,13.90
2018-02-05T06:47:13.008Z,14.63
2018-02-05T06:49:41.212Z,13.50
2018-02-05T06:52:22.230Z,14.17
2018-02-05T06:55:02.272Z,13.97
2018-02-05T06:57:30.487Z,13.03
2018-02-05T06:59:58.667Z,14.10
2018-02-05T07:02:26.870Z,14.13
2018-02-05T07:04:55.056Z,14.50
2018-02-05T07:07:23.242Z,13.20
2018-02-05T07:09:52.220Z,14.13
2018-02-05T07:12:21.181Z,13.20
2018-02-05T07:14:50.144Z,12.80
2018-02-05T07:17:18.417Z,13.27
2018-02-05T07:19:46.597Z,13.33
2018-02-05T07:22:14.812Z,14.17
2018-02-05T07:24:44.509Z,14.73
2018-02-05T07:27:12.698Z,14.13
2018-02-05T07:29:40.883Z,14.30
2018-02-05T07:32:09.099Z,13.40
2018-02-05T07:34:37.298Z,14.20
2018-02-05T07:37:05.505Z,14.93
2018-02-05T07:39:33.722Z,14.70
2018-02-05T07:42:01.926Z,14.83
2018-02-05T07:44:30.123Z,14.17
2018-02-05T07:46:58.349Z,14.57
2018-02-05T07:49:26.625Z,14.43
2018-02-05T07:51:54.852Z,15.53
2018-02-05T07:54:23.075Z,14.90
2018-02-05T07:56:51.470Z,14.60
2018-02-05T07:59:19.659Z,15.53
2018-02-05T08:01:47.854Z,15.03
2018-02-05T08:04:16.079Z,15.13
2018-02-05T08:06:44.375Z,15.17
2018-02-05T08:09:12.602Z,15.47
2018-02-05T08:11:40.822Z,15.23
2018-02-05T08:14:09.064Z,15.50
2018-02-05T08:16:38.070Z,14.80
2018-02-05T08:19:07.060Z,14.90
2018-02-05T08:21:36.031Z,15.80
2018-02-05T08:24:05.017Z,15.10
2018-02-05T08:26:33.204Z,15.07
2018-02-05T08:29:01.440Z,16.00
2018-02-05T08:31:29.640Z,15.10
2018-02-05T08:33:57.824Z,15.53
2018-02-05T08:36:26.026Z,15.47
2018-02-05T08:38:54.966Z,15.80
2018-02-05T08:41:23.174Z,14.70
2018-02-05T08:43:51.384Z,15.20
2018-02-05T08:46:19.556Z,15.00
2018-02-05T08:48:47.748Z,14.77
2018-02-05T08:51:15.934Z,15.43
2018-02-05T08:53:44.168Z,14.87
2018-02-05T08:56:13.114Z,14.50
2018-02-05T08:58:41.290Z,14.27
2018-02-05T09:01:09.473Z,14.80
2018-02-05T09:03:37.704Z,14.33
2018-02-05T09:06:05.922Z,14.33
2018-02-05T09:08:34.105Z,14.37
2018-02-05T09:11:02.316Z,15.03
2018-02-05T09:13:31.302Z,12.60
2018-02-05T09:16:00.265Z,13.77
2018-02-05T09:18:28.459Z,13.60
2018-02-05T09:20:56.617Z,12.70
2018-02-05T09:23:24.965Z,12.80
2018-02-05T09:25:53.143Z,12.20
2018-02-05T09:28:21.341Z,11.80
2018-02-05T09:30:49.565Z,12.20
2018-02-05T09:33:18.521Z,11.43
2018-02-05T09:35:46.878Z,11.33
2018-02-05T09:38:15.114Z,11.47
2018-02-05T09:40:44.081Z,12.13
2018-02-05T09:43:12.284Z,10.63
2018-02-05T09:45:40.513Z,11.53
2018-02-05T09:48:09.537Z,10.77
2018-02-05T09:50:38.588Z,10.20
2018-02-05T09:53:06.795Z,10.63
2018-02-05T09:55:35.024Z,10.43
2018-02-05T09:58:03.323Z,10.93
2018-02-05T10:00:31.534Z,9.93
2018-02-05T10:02:59.733Z,11.07
2018-02-05T10:05:27.948Z,10.67
2018-02-05T10:07:56.161Z,9.83
2018-02-05T10:10:24.828Z,10.57
2018-02-05T10:12:53.006Z,10.60
2018-02-05T10:15:21.202Z,10.23
2018-02-05T10:17:49.390Z,11.27
2018-02-05T10:20:18.330Z,10.50
2018-02-05T10:22:46.591Z,11.77
2018-02-05T10:25:14.812Z,9.83
2018-02-05T10:27:42.985Z,9.67
2018-02-05T10:30:12.862Z,8.97
2018-02-05T10:32:41.098Z,10.43
2018-02-05T10:35:10.080Z,9.30
2018-02-05T10:37:39.095Z,9.87
2018-02-05T10:40:08.042Z,9.50
2018-02-05T10:42:36.214Z,9.87
2018-02-05T10:45:04.482Z,9.53
2018-02-05T10:47:32.726Z,9.73
2018-02-05T10:50:01.016Z,10.03
2018-02-05T10:52:29.201Z,10.30
2018-02-05T10:54:57.502Z,10.23
2018-02-05T10:57:25.775Z,10.20
2018-02-05T10:59:54.131Z,10.60
2018-02-05T11:02:22.321Z,10.07
2018-02-05T11:04:50.520Z,10.83
2018-02-05T11:07:19.773Z,10.77
2018-02-05T11:09:48.241Z,10.43
2018-02-05T11:12:17.245Z,9.93
2018-02-05T11:14:45.434Z,9.73
2018-02-05T11:17:13.647Z,10.70
2018-02-05T11:19:41.873Z,10.60
2018-02-05T11:22:10.155Z,11.00
2018-02-05T11:24:38.374Z,11.13
2018-02-05T11:27:06.565Z,10.30
2018-02-05T11:29:35.521Z,9.63
2018-02-05T11:32:03.708Z,10.07
2018-02-05T11:34:31.896Z,9.83
2018-02-05T11:37:00.257Z,10.20
2018-02-05T11:39:29.018Z,9.90
2018-02-05T11:41:57.201Z,10.37
2018-02-05T11:44:25.470Z,9.97
2018-02-05T11:46:53.660Z,9.63
2018-02-05T11:49:21.892Z,9.90
2018-02-05T11:51:50.897Z,10.50
2018-02-05T11:54:19.099Z,9.53
2018-02-05T11:56:47.330Z,9.73
2018-02-05T11:59:16.288Z,10.23
2018-02-05T12:01:44.535Z,9.93
2018-02-05T12:04:12.837Z,9.40
2018-02-05T12:06:41.055Z,9.63
2018-02-05T12:09:10.030Z,9.70
2018-02-05T12:11:38.284Z,9.87
2018-02-05T12:14:06.548Z,9.33
2018-02-05T12:16:34.716Z,8.80
2018-02-05T12:19:02.976Z,9.53
2018-02-05T12:21:31.211Z,10.57
2018-02-05T12:24:00.205Z,10.33
2018-02-05T12:26:28.417Z,10.20
2018-02-05T12:28:56.592Z,9.67
2018-02-05T12:31:24.768Z,10.20
2018-02-05T12:33:53.006Z,10.90
2018-02-05T12:36:21.217Z,10.07
2018-02-05T12:38:50.356Z,10.67
2018-02-05T12:41:18.547Z,10.27
2018-02-05T12:43:46.736Z,11.13
2018-02-05T12:46:15.719Z,9.80
2018-02-05T12:48:43.899Z,10.60
2018-02-05T12:51:12.163Z,10.20
2018-02-05T12:53:40.346Z,10.20
2018-02-05T12:56:09.073Z,10.43
2018-02-05T12:58:38.047Z,10.03
2018-02-05T13:04:29.723Z,10.53
2018-02-05T13:06:57.957Z,11.00
2018-02-05T13:09:26.262Z,10.47
2018-02-05T13:11:54.491Z,10.20
2018-02-05T13:14:22.715Z,9.70
2018-02-05T13:16:51.656Z,10.60
2018-02-05T13:19:19.826Z,9.77
2018-02-05T13:24:19.785Z,12.07
2018-02-05T13:26:48.110Z,11.57
2018-02-05T13:29:16.277Z,10.40
2018-02-05T13:31:45.222Z,9.67
2018-02-05T13:34:13.388Z,9.77
2018-02-05T13:36:41.574Z,9.83
2018-02-05T13:39:10.579Z,10.97
2018-02-05T13:41:38.768Z,10.33
2018-02-05T13:44:06.939Z,11.37
2018-02-05T13:46:35.902Z,10.73
2018-02-05T13:49:04.170Z,11.17
2018-02-05T13:51:32.391Z,9.67
2018-02-05T13:54:01.337Z,10.13
2018-02-05T13:56:29.620Z,9.80
2018-02-05T13:58:57.879Z,9.97
2018-02-05T14:01:26.047Z,9.83
2018-02-05T14:03:54.277Z,10.00
2018-02-05T14:06:23.264Z,9.70
2018-02-05T14:08:51.446Z,10.10
2018-02-05T14:11:19.651Z,9.53
2018-02-05T14:13:48.590Z,9.87
2018-02-05T14:16:16.818Z,9.70
2018-02-05T14:18:45.756Z,9.53
2018-02-05T14:21:13.940Z,9.73
2018-02-05T14:23:42.103Z,9.83
2018-02-05T14:26:10.328Z,13.37
2018-02-05T14:28:39.326Z,10.17
2018-02-05T14:31:08.278Z,9.93
2018-02-05T14:33:36.568Z,14.20
2018-02-05T14:36:04.816Z,14.33
2018-02-05T14:38:33.001Z,12.67
2018-02-05T14:41:01.281Z,12.17
2018-02-05T14:43:29.461Z,10.87
2018-02-05T14:45:57.630Z,12.47
2018-02-05T14:48:25.840Z,10.57
2018-02-05T14:50:54.812Z,10.20
2018-02-05T14:53:23.037Z,9.93
2018-02-05T14:55:51.215Z,9.83
2018-02-05T14:58:19.413Z,9.43
2018-02-05T15:00:47.628Z,8.97
2018-02-05T15:03:15.801Z,9.27
2018-02-05T15:05:44.039Z,9.67
2018-02-05T15:08:12.256Z,9.20
2018-02-05T15:10:40.476Z,10.43
2018-02-05T15:13:08.710Z,9.37
2018-02-05T15:15:37.041Z,9.67
2018-02-05T15:18:05.290Z,10.17
2018-02-05T15:20:34.267Z,10.40
2018-02-05T15:23:02.584Z,11.10
2018-02-05T15:25:30.782Z,11.63
2018-02-05T15:27:59.130Z,11.97
2018-02-05T15:30:27.403Z,12.53
2018-02-05T15:32:58.564Z,11.23
2018-02-05T15:35:26.769Z,10.17
2018-02-05T15:37:54.945Z,12.77
2018-02-05T15:40:24.184Z,39.97
2018-02-05T15:42:53.223Z,12.80
2018-02-05T15:45:22.301Z,15.90
2018-02-05T15:47:50.516Z,16.50
2018-02-05T15:50:20.217Z,18.00
2018-02-05T15:52:48.413Z,15.77
2018-02-05T15:55:16.732Z,21.53
2018-02-05T15:57:45.124Z,20.07
2018-02-05T16:00:13.432Z,12.03
2018-02-05T16:02:41.623Z,15.10
2018-02-05T16:05:09.850Z,14.80
2018-02-05T16:07:38.834Z,11.33
2018-02-05T16:10:07.241Z,12.33
2018-02-05T16:12:35.632Z,15.37
2018-02-05T16:15:03.841Z,21.30
2018-02-05T16:17:32.881Z,12.17
2018-02-05T16:20:01.167Z,14.03
2018-02-05T16:22:29.426Z,11.47
2018-02-05T16:24:57.756Z,13.17
2018-02-05T16:27:27.510Z,15.67
2018-02-05T16:29:56.469Z,11.60
2018-02-05T16:32:25.447Z,11.70
2018-02-05T16:34:53.654Z,12.90
2018-02-05T16:37:22.619Z,12.37
2018-02-05T16:39:50.809Z,12.33
2018-02-05T16:42:19.822Z,11.60
2018-02-05T16:44:48.955Z,12.30
2018-02-05T16:47:17.183Z,13.33
2018-02-05T16:49:46.169Z,12.17
2018-02-05T16:52:14.491Z,11.73
2018-02-05T16:54:42.976Z,11.57
2018-02-05T16:57:11.977Z,12.53
2018-02-05T16:59:40.181Z,12.10
2018-02-05T17:02:08.526Z,11.77
2018-02-05T17:04:36.733Z,11.63
2018-02-05T17:07:05.019Z,12.40
2018-02-05T17:09:33.464Z,11.80
2018-02-05T17:12:01.661Z,11.90
2018-02-05T17:14:29.895Z,11.60
2018-02-05T17:16:58.117Z,12.57
2018-02-05T17:19:26.351Z,12.87
2018-02-05T17:21:54.797Z,17.80
2018-02-05T17:24:23.330Z,15.90
2018-02-05T17:26:51.577Z,17.93
2018-02-05T17:29:19.936Z,16.13
2018-02-05T17:31:48.140Z,20.03
2018-02-05T17:34:18.143Z,18.93
2018-02-05T17:36:46.340Z,19.30
2018-02-05T17:39:15.414Z,21.50
2018-02-05T17:41:45.370Z,17.87
2018-02-05T17:44:18.025Z,15.30
2018-02-05T17:46:47.039Z,15.17
2018-02-05T17:49:15.509Z,15.00
2018-02-05T17:51:44.370Z,17.07
2018-02-05T17:54:13.617Z,17.57
2018-02-05T17:56:41.951Z,16.27
2018-02-05T17:59:10.197Z,16.30
2018-02-05T18:01:38.754Z,18.13
2018-02-05T18:04:06.970Z,15.80
2018-02-05T18:06:36.675Z,14.73
2018-02-05T18:09:04.854Z,14.97
2018-02-05T18:11:33.072Z,14.23
2018-02-05T18:14:01.245Z,15.30
2018-02-05T18:16:29.747Z,13.97
2018-02-05T18:18:57.965Z,14.23
2018-02-05T18:21:26.156Z,15.30
2018-02-05T18:23:54.982Z,14.63
2018-02-05T18:26:23.199Z,15.13
2018-02-05T18:28:51.396Z,13.97
2018-02-05T18:31:20.432Z,12.80
2018-02-05T18:33:48.711Z,14.00
2018-02-05T18:36:16.945Z,14.90
2018-02-05T18:38:45.918Z,12.10
2018-02-05T18:41:14.135Z,12.67
2018-02-05T18:43:42.335Z,13.03
2018-02-05T18:46:10.537Z,14.20
2018-02-05T18:48:38.773Z,12.93
2018-02-05T18:51:06.963Z,13.47
2018-02-05T18:53:35.162Z,13.20
2018-02-05T18:56:04.304Z,13.27
2018-02-05T18:58:33.288Z,14.00
2018-02-05T19:01:02.268Z,12.80
2018-02-05T19:03:30.494Z,13.77
2018-02-05T19:05:58.699Z,13.77
2018-02-05T19:08:26.960Z,12.07
2018-02-05T19:10:55.170Z,13.50
2018-02-05T19:13:23.393Z,13.73
2018-02-05T19:15:51.613Z,13.07
2018-02-05T19:18:19.854Z,13.60
2018-02-05T19:20:48.069Z,13.97
2018-02-05T19:23:16.291Z,12.30
2018-02-05T19:25:44.525Z,13.90
2018-02-05T19:28:13.366Z,12.47
2018-02-05T19:30:41.578Z,12.87
2018-02-05T19:33:09.844Z,13.43
2018-02-05T19:35:38.036Z,13.90
2018-02-05T19:38:06.273Z,13.03
2018-02-05T19:40:34.988Z,12.70
2018-02-05T19:43:07.073Z,13.00
2018-02-05T19:45:38.480Z,12.47
2018-02-05T19:48:11.019Z,13.73
2018-02-05T19:50:42.042Z,13.57
2018-02-05T19:53:15.112Z,13.47
2018-02-05T19:55:45.378Z,14.87
2018-02-05T19:58:16.337Z,13.70
2018-02-05T20:00:48.710Z,13.43
2018-02-05T20:03:19.086Z,13.23
2018-02-05T20:05:50.618Z,14.20
2018-02-05T20:08:21.312Z,13.67
2018-02-05T20:10:53.263Z,14.83
2018-02-05T20:13:27.921Z,15.03
2018-02-05T20:16:01.296Z,15.87
2018-02-05T20:18:35.698Z,14.47
2018-02-05T20:21:06.937Z,14.83
2018-02-05T20:23:38.829Z,14.67
2018-02-05T20:26:12.554Z,14.73
2018-02-05T20:28:42.514Z,14.23
2018-02-05T20:31:19.811Z,15.73
2018-02-05T20:33:50.219Z,14.43
2018-02-05T20:36:25.863Z,15.20
2018-02-05T20:39:05.983Z,15.80
2018-02-05T20:41:36.371Z,15.90
2018-02-05T20:44:07.805Z,15.40
2018-02-05T20:46:40.142Z,15.70
2018-02-05T20:49:11.650Z,16.07
2018-02-05T20:51:42.417Z,15.63
2018-02-05T20:54:15.021Z,15.30
2018-02-05T20:56:48.079Z,16.03
2018-02-05T20:59:20.469Z,14.80
2018-02-05T21:01:51.430Z,15.97
2018-02-05T21:04:23.519Z,16.57
2018-02-05T21:06:56.572Z,15.10
2018-02-05T21:09:29.307Z,16.07
2018-02-05T21:12:00.571Z,16.40
2018-02-05T21:14:33.745Z,15.63
2018-02-05T21:17:05.473Z,16.47
2018-02-05T21:19:38.378Z,16.20
2018-02-05T21:22:10.592Z,16.10
2018-02-05T21:24:41.924Z,16.00
2018-02-05T21:27:11.412Z,15.57
2018-02-05T21:29:46.983Z,16.70
2018-02-05T21:32:18.461Z,16.53
2018-02-05T21:34:51.350Z,16.20
2018-02-05T21:37:22.283Z,15.50
2018-02-05T21:39:53.442Z,15.87
2018-02-05T21:42:27.482Z,15.57
2018-02-05T21:45:02.218Z,15.93
2018-02-05T21:47:37.193Z,15.83
2018-02-05T21:50:08.976Z,17.00
2018-02-05T21:52:41.737Z,16.30
2018-02-05T21:55:15.054Z,16.37
2018-02-05T21:57:47.042Z,18.53
2018-02-05T22:00:18.147Z,22.80
2018-02-05T22:02:48.968Z,19.70
2018-02-05T22:05:21.089Z,17.17
2018-02-05T22:07:53.111Z,19.80
2018-02-05T22:10:26.543Z,15.63
2018-02-05T22:12:59.343Z,17.57
2018-02-05T22:15:30.730Z,16.30
2018-02-05T22:18:04.816Z,19.50
2018-02-05T22:20:36.180Z,17.80
2018-02-05T22:23:13.639Z,19.30
2018-02-05T22:25:46.315Z,17.50
2018-02-05T22:28:18.122Z,16.30
2018-02-05T22:30:49.706Z,19.30
2018-02-05T22:33:20.317Z,18.07
2018-02-05T22:35:51.715Z,19.13
2018-02-05T22:38:23.051Z,19.20
2018-02-05T22:40:55.025Z,17.23
2018-02-05T22:43:25.545Z,19.53
2018-02-05T22:45:55.693Z,18.67
2018-02-05T22:48:28.360Z,17.23
2018-02-05T22:51:00.231Z,19.17
2018-02-05T22:53:30.714Z,17.17
2018-02-05T22:56:00.627Z,17.33
2018-02-05T22:58:34.599Z,22.20
2018-02-05T23:01:08.608Z,21.30
2018-02-05T23:03:44.220Z,18.97
2018-02-05T23:06:19.146Z,21.57
2018-02-05T23:08:51.841Z,21.00
2018-02-05T23:11:23.032Z,29.37
2018-02-05T23:13:58.833Z,21.77
2018-02-05T23:16:30.714Z,32.03
2018-02-05T23:19:03.852Z,29.80
2018-02-05T23:21:36.557Z,25.07
2018-02-05T23:24:07.419Z,24.10
2018-02-05T23:26:38.193Z,22.60
2018-02-05T23:29:08.307Z,21.13
2018-02-05T23:34:23.137Z,20.60
2018-02-05T23:36:56.068Z,23.77
2018-02-05T23:39:29.493Z,18.87
2018-02-05T23:42:02.139Z,19.23
2018-02-05T23:44:33.315Z,25.30
2018-02-05T23:47:08.541Z,28.00
2018-02-05T23:49:42.634Z,23.50
2018-02-05T23:52:13.487Z,27.50
2018-02-05T23:54:44.981Z,25.73
2018-02-05T23:57:17.318Z,22.70
2018-02-05T23:59:51.158Z,21.83
